Litchfield, OH (44253)

6:48 AM EST on December 11, 2016 (GMT -0500)
Crow Rd | | Change Station
Active Advisory: Winter Weather Advisory Active Notice: Public Information Statement

Elev 994 ft 41.18 °N, 82.00 °W | Updated 33 seconds ago

Snow
Snow
22.1 °F
Feels Like 14 °F
N
6.0
Wind Variable Wind from South

Today
High -- | Low -- °F
--% Chance of Precip.
Yesterday
High -- | Low -- °F
Precip. -- in
Pressure 30.35 in
Visibility 2.5 miles
Clouds Overcast 3000 ft
Windchill 14 °F
Dew Point 21 °F
Humidity 96%
Rainfall 0.00 in
Snow Depth Not available.
7:43 AM 4:59 PM
Waxing Gibbous, 91% visible
SPECI KLPR 111146Z AUTO 17009KT 2 1/2SM -SN BR OVC030 M05/M07 A3035 RMK AO2 P0000 T10501072
Pressure 30.35 in
Visibility 2.5 miles
Clouds Overcast 3000 ft
Windchill 14 °F
Dew Point 21 °F
Humidity 96%
Rainfall 0.00 in
Snow Depth Not available.
7:43 AM 4:59 PM
Waxing Gibbous, 91% visible
SPECI KLPR 111146Z AUTO 17009KT 2 1/2SM -SN BR OVC030 M05/M07 A3035 RMK AO2 P0000 T10501072

10-Day Weather Forecast

Almanac

Astronomy

Dec. 11, 2016 Rise Set
Actual Time
Civil Twilight
Nautical Twilight
Astronomical Twilight
Moon
Length of Visible Light
Length of Day
Tomorrow will be .
, % of the Moon is Illuminated

Today's Extremes

State Highs State Lows

Community

WunderPhotos

Upload Photos

1,956,710 photos uploaded!

WunderBlog® & News

Nearby

Air Quality

  Air Quality AQ Index Pollutant
Not available.

Snow Depth

Station Depth Elevation

Earthquake Activity

City Distance Mag. Time & Date
Minimum magnitude displayed is 2.5.

Coastal Water Temperatures

Place Temperature

Stations

Nearby Weather Stations

Station Location Temp. Windchill Dew Point Humidity Wind Precip. Elev Updated Type
                   

Watches & Warnings

Winter Weather Advisory
Issued: 3:03 AM EST Dec. 11, 2016 – National Weather Service

... Winter Weather Advisory remains in effect until 4 am EST
Monday...

* accumulations... light to moderate snow will result in total
accumulation of 3 to 6 inches by late tonight.

* Timing... occasional snow will occur until late tonight. The snow
may mix with rain by evening.

* Impacts... snow covered roads and walkways. Hazardous driving
conditions on untreated roads with reduced visibilities.

* Winds... south 10 to 20 mph with gusts up to 25 mph today
becoming southwest late tonight.

* Temperatures... in the low to mid 20s rising into the low to mid
30s by early tonight.

Precautionary/preparedness actions...

A Winter Weather Advisory for snow is issued when moderate
amounts of accumulating snow will cause travel difficulties. Be
prepared for snow covered roads and limited visibilities... and
use caution while driving.